Aviation Digital Data Service (ADDS)

Output produced by METARs form (1553 UTC 28 February 2015)
found at http://aviationweather.gov/adds/metars/
 
KBPT 281453Z 07012KT 10SM BKN065 OVC095 08/00 A3034 RMK AO2 SLP272 T00830000 55000